Tiempo atmosférico en la estación meteorológica de Ponferrada, León (534 m.)



Fecha
DESCASC
Temp. máxima en grados centígrados (hora)
DESCASC
Temp. mínima en grados centígrados (hora)
DESCASC
Temp. media en grados centígrados
DESCASC
Racha de viento máxima en m/sg (hora)
DESCASC
Velocidad máxima media en intervalos de 10 minutos(hora)
DESCASC
Precipitaciones diarias en mm
DESCASC
Precipitaciones de 00:00 a 06:00 en mm
DESCASC
Precipitaciones de 06:00 a 12:00 en mm
DESCASC
Precipitaciones de 12:00 a 18:00 en mm
DESCASC
Precipitaciones de 18:00 a 24:00 en mm
DESCASC
13-01-2020 7.3 (16:40) -4.3 (-00:0) 1.5 -- (--) -- (--) -- 0 -- 0 0
09-01-2020 13.4 (15:30) 4.5 (00:00) 8.9 10.83 (16:30) 5.28 (16:30) -- 0 -- 0.6 0.2
11-01-2020 9.8 (17:20) -2.5 (-00:0) 3.7 3.06 (12:10) 1.67 (12:10) 0 0 0 0 0
25-01-2020 12.5 (16:30) 1.9 (00:00) 7.2 3.61 (14:10) 1.94 (15:10) 0 0 0 0 0
24-01-2020 10.2 (16:30) 1.6 (00:00) 5.9 3.61 (20:10) 1.67 (19:50) 0 0 0 0 0
23-01-2020 12.2 (15:40) 4.4 (00:00) 8.3 9.17 (00:40) 5.28 (13:10) 0 0 0 0 0
22-01-2020 12.8 (15:50) 2.9 (00:00) 7.9 10 (12:50) 5 (12:50) 0 0 0 0 0
21-01-2020 10.9 (23:40) -2.6 (-00:0) 4.1 8.61 (23:20) 5.28 (23:20) 0 0 0 0 0
20-01-2020 9.5 (15:10) 0.1 (00:00) 4.8 11.39 (13:50) 6.11 (12:50) 0 0 0 0 0
19-01-2020 12.1 (13:40) 2.3 (00:00) 7.2 11.11 (15:00) 5 (14:50) 0 0 0 0 0
16-01-2020 15 (12:40) 6.7 (00:00) 10.8 -- (--) -- (--) -- 0 0 -- --
14-01-2020 13 (14:40) 3.3 (00:00) 8.1 -- (--) -- (--) -- 0 0 0 --
12-01-2020 4 (17:30) -3.1 (-00:0) 0.5 3.06 (07:10) 1.67 (22:40) 0 0 0 0 0
27-12-2019 1.7 (15:50) -0.8 (-00:0) 0.5 -- (--) -- (--) -- -- 0 0 0
10-01-2020 12.3 (16:10) 0.8 (00:00) 6.6 6.11 (00:40) 3.61 (00:40) -- 0 0 -- 0
08-01-2020 12.9 (17:10) -1.7 (-00:0) 5.6 2.78 (02:10) 1.39 (02:10) -- 0 0 -- 0
07-01-2020 6.8 (17:00) -4 (-00:0) 1.4 3.33 (23:40) 1.94 (23:40) 0 0 0 0 0
06-01-2020 4.7 (16:20) -2.7 (-00:0) 1 3.06 (10:50) 2.22 (16:50) 0 0 0 0 0
05-01-2020 5.7 (17:30) -1.2 (-00:0) 2.2 3.33 (13:10) 1.67 (02:30) 0 0 0 0 0
04-01-2020 5.2 (02:40) 3.1 (00:00) 4.1 3.89 (09:10) 2.5 (09:10) 0 0 0 0 0
03-01-2020 6.3 (16:10) -1 (-00:0) 2.7 2.5 (15:30) 1.11 (08:00) 0.4 0 0 0.4 0
02-01-2020 4.1 (16:40) -4.9 (-00:0) -0.4 2.5 (15:00) 1.39 (11:40) -- -- 0 0 0
01-01-2020 6.5 (17:10) -4 (-00:0) 1.3 3.06 (05:50) 1.67 (07:50) 0 0 0 0 0
31-12-2019 8.7 (16:30) -3.4 (-00:0) 2.6 2.5 (11:40) 1.67 (12:00) 0 0 0 0 0
30-12-2019 -- (--) -- (--) -- -- (--) -- (--) -- 0 0 0 --
29-12-2019 7.9 (16:40) -3.6 (-00:0) 2.2 2.22 (04:20) 1.39 (16:50) -- -- 0 0 0
28-12-2019 4.4 (17:20) -2.4 (-00:0) 1 3.33 (08:30) 1.94 (08:30) -- 0 0 0 --
18-01-2020 8.4 (17:50) 4.4 (00:00) 6.4 -- (--) -- (--) -- 0 0.2 -- 4.8
17-01-2020 10.1 (13:30) 5.4 (00:00) 7.8 8.89 (03:30) 3.33 (15:10) 2.6 1 1.6 0 0
15-01-2020 15.4 (16:20) 6.6 (00:00) 11 7.78 (08:50) 3.33 (08:40) 7.2 0 7.2 0 0

Gráficas

Temp. máximas Temp. mínimas Temp. medias Precipitaciones Rachas de viento máximas Velocidades máximas media en intervalos de 10 minutos

Datos horarios

Fecha y hora oficial Temperatura (ºC) Velocidad del viento (km/h) Dirección del viento Racha (km/h) Dirección de racha Precipitación (mm) Presión (hPa) Tendencia (hPa) Humedad (%)
2020-01-25 23:00:00 5.4 2 Este 5 Noroeste 0 955.9 1.4 76
2020-01-25 22:00:00 6.3 0 Calma 3 Este 0 955.5 1.7 71
2020-01-25 21:00:00 7.9 3 Este 4 Este 0 954.9 1.6 68
2020-01-25 20:00:00 9 0 Calma 7 Sudeste 0 954.5 1.5 61
2020-01-25 19:00:00 9.7 5 Sudeste 7 Sudeste 0 953.8 0.9 58
2020-01-25 18:00:00 11.1 4 Sudeste 8 Sur 0 953.3 0.1 49
2020-01-25 17:00:00 12.2 3 Sur 10 Sur 0 953 -0.8 43
2020-01-25 16:00:00 12.3 3 Sudoeste 10 Noroeste 0 952.9 -1.7 41
2020-01-25 15:00:00 12.1 5 Oeste 13 Sur 0 953.2 -2 48
2020-01-25 14:00:00 10.6 3 Sur 8 Oeste 0 953.8 -1.5 58
2020-01-25 13:00:00 9.5 5 Oeste 9 Noroeste 0 954.6 -0.5 70
2020-01-25 12:00:00 8.2 4 Oeste 7 Oeste 0 955.2 0.4 78
2020-01-25 11:00:00 5.5 3 Noroeste 5 Noroeste 0 955.3 0.9 89
2020-01-25 10:00:00 2.6 3 Sur 5 Sur 0 955.1 1 98
2020-01-25 09:00:00 2.2 0 Calma 5 Sudeste 0 954.8 0.7 93
2020-01-25 08:00:00 3.1 4 Sudeste 7 Sudeste 0 954.4 0.1 94
2020-01-25 07:00:00 3.6 2 Este 4 Este 0 954.1 -0.3 92
2020-01-25 06:00:00 4.9 0 Calma 4 Este 0 954.1 -0.7 90
2020-01-25 05:00:00 5.5 0 Calma 4 Noroeste 0 954.3 -0.9 89
2020-01-25 04:00:00 5.4 2 Este 3 Este 0 954.4 -1.1 90
2020-01-25 03:00:00 5.5 2 Este 3 Nordeste 0 954.8 -0.9 88
2020-01-25 02:00:00 5.7 0 Calma 5 Noroeste 0 955.2 -0.7 85
2020-01-25 01:00:00 6.3 0 Calma 5 Sur 0 955.5 -0.6 84
2020-01-25 00:00:00 6.5 0 Calma 6 Sur 0 955.7 -0.4 83
2020-01-24 23:00:00 6.3 3 Sudeste 5 Sur 0 955.9 0 85
2020-01-24 22:00:00 6.5 2 Nordeste 7 Este 0 956.1 0.4 82
2020-01-24 21:00:00 6.9 4 Este 13 Este 0 956.1 0.8 79
2020-01-24 20:00:00 8.2 6 Este 11 Sudeste 0 955.9 0.7 75
2020-01-24 19:00:00 8.8 2 Este 4 Este 0 955.7 0.3 74
2020-01-24 18:00:00 9.8 2 Nordeste 6 Noroeste 0 955.3 -0.4 68
2020-01-24 17:00:00 10.1 3 Oeste 6 Oeste 0 955.2 -1.2 66
2020-01-24 16:00:00 10 4 Oeste 8 Oeste 0 955.4 -2 66
2020-01-24 15:00:00 9.4 4 Oeste 8 Noroeste 0 955.7 -2.1 66
2020-01-24 14:00:00 8.7 2 Sudoeste 6 Sudoeste 0 956.4 -1.3 68
2020-01-24 13:00:00 8 3 Sudoeste 6 Oeste 0 957.4 0 70
2020-01-24 12:00:00 7.3 3 Sur 8 Sur 0 957.8 0.8 71
2020-01-24 11:00:00 6 3 Sudoeste 6 Sur 0 957.7 1.1 77
2020-01-24 10:00:00 2.8 0 Calma 4 Este 0 957.4 1.1 93
2020-01-24 09:00:00 1.7 0 Calma 5 Oeste 0 957 1 90
2020-01-24 08:00:00 1.8 3 Este 5 Nordeste 0 956.6 0.8 91
2020-01-24 07:00:00 2.6 3 Este 5 Nordeste 0 956.3 0.2 87
2020-01-24 06:00:00 3.9 4 Noroeste 8 Sur 0 956 -0.2 86
2020-01-24 05:00:00 3.9 3 Sudeste 5 Noroeste 0 955.8 -0.6 86
2020-01-24 04:00:00 3.9 3 Sudoeste 6 Este 0 956.1 -0.2 85
2020-01-24 03:00:00 4.9 2 Nordeste 4 Norte 0 956.2 0 79
2020-01-24 02:00:00 5.4 0 Calma 5 Este 0 956.4 0.3 78
2020-01-24 01:00:00 5.5 2 Oeste 4 Noroeste 0 956.3 0.6 76
2020-01-24 00:00:00 5.8 2 Oeste 5 Oeste 0 956.2 1 74
2020-01-23 23:00:00 5.6 0 Calma 5 Este 0 956.1 1.3 75
2020-01-23 22:00:00 5.9 3 Norte 12 Este 0 955.7 1.6 71
2020-01-23 21:00:00 7.1 9 Este 17 Este 0 955.2 1.5 66
2020-01-23 20:00:00 7.6 6 Este 16 Este 0 954.8 0.9 63
2020-01-23 19:00:00 8.9 9 Este 17 Este 0 954.1 0.3 59
2020-01-23 18:00:00 10.1 8 Sudeste 24 Este 0 953.7 -0.3 56
2020-01-23 17:00:00 11 14 Sudeste 31 Sudeste 0 953.9 -1.1 53
2020-01-23 16:00:00 11.8 16 Sudeste 28 Sudeste 0 953.8 -1.8 51
2020-01-23 15:00:00 11.4 15 Este 30 Sudeste 0 954 -2.5 54
2020-01-23 14:00:00 10.5 17 Este 32 Este 0 955 -1.6 56
2020-01-23 13:00:00 9.7 18 Este 31 Sudeste 0 955.6 -0.6 60
2020-01-23 12:00:00 9.1 18 Este 28 Sudeste 0 956.5 0.5 61
2020-01-23 11:00:00 8.2 12 Este 21 Este 0 956.6 1.2 63
2020-01-23 10:00:00 5.1 3 Oeste 11 Nordeste 0 956.2 1 77
2020-01-23 09:00:00 4.5 6 Este 12 Sudeste 0 956 0.7 78
2020-01-23 08:00:00 5.2 6 Este 17 Sudeste 0 955.4 -0.1 74
2020-01-23 07:00:00 6 7 Este 16 Este 0 955.2 -0.3 73
2020-01-23 06:00:00 6.6 5 Este 20 Sudeste 0 955.3 -0.1 72
2020-01-23 05:00:00 6.3 14 Este 27 Este 0 955.5 -0.3 74
2020-01-23 04:00:00 5.9 11 Este 24 Este 0 955.5 -0.7 75
2020-01-23 03:00:00 6.2 17 Este 27 Este 0 955.4 -0.6 73
2020-01-23 02:00:00 6.4 10 Este 24 Este 0 955.8 -0.1 72
2020-01-23 01:00:00 7.2 13 Este 33 Sudeste 0 956.2 0.6 70
2020-01-23 00:00:00 7.9 15 Sudeste 31 Sudeste 0 956 0.6 67
2020-01-22 23:00:00 7.7 9 Este 22 Este 0 955.9 0.5 67
2020-01-22 22:00:00 8.3 9 Sudeste 15 Este 0 955.6 0.4 64
2020-01-22 21:00:00 9 6 Este 10 Este 0 955.4 0.4 62
2020-01-22 20:00:00 9.5 6 Este 12 Sudeste 0 955.4 0.3 62
2020-01-22 19:00:00 10 6 Sudeste 11 Sudeste 0 955.2 -0.5 61
2020-01-22 18:00:00 11.2 5 Sudeste 21 Sur 0 955 -1.4 55
2020-01-22 17:00:00 12.3 10 Sudeste 22 Sudeste 0 955.1 -2.1 50
2020-01-22 16:00:00 12.5 13 Sudeste 25 Sudeste 0 955.7 -2.5 49
2020-01-22 15:00:00 11.6 14 Sudeste 23 Sudeste 0 956.4 -2.3 54
2020-01-22 14:00:00 10.9 10 Sudeste 24 Este 0 957.2 -1.6 60
2020-01-22 13:00:00 10 15 Este 36 Este 0 958.2 -0.2 64
2020-01-22 12:00:00 8.8 10 Este 32 Sudeste 0 958.7 0.8 68
2020-01-22 11:00:00 8.2 11 Sudeste 25 Sudeste 0 958.8 1.1 71
2020-01-22 10:00:00 6.8 7 Sudeste 13 Sudeste 0 958.4 0.6 75
2020-01-22 09:00:00 4.1 5 Este 9 Este 0 957.9 0.1 81
2020-01-22 08:00:00 4.5 3 Este 10 Este 0 957.7 0.2 80
2020-01-22 07:00:00 3.2 4 Sudeste 6 Sur 0 957.8 -0.1 80
2020-01-22 06:00:00 4 3 Norte 9 Oeste 0 957.8 -0.5 75
2020-01-22 05:00:00 3.2 3 Sudeste 6 Este 0 957.5 -0.7 78
2020-01-22 04:00:00 4.3 3 Este 6 Este 0 957.9 -0.4 71
2020-01-22 03:00:00 5.7 3 Nordeste 13 Oeste 0 958.3 0 65
2020-01-22 02:00:00 8.5 6 Nordeste 21 Nordeste 0 958.2 -0.2 51
2020-01-22 01:00:00 9.2 7 Este 26 Este 0 958.3 0 50
2020-01-22 00:00:00 10.6 14 Este 31 Este 0 958.3 -0.3 45
2020-01-21 23:00:00 8.9 10 Este 16 Este 0 958.4 -0.2 54
2020-01-21 22:00:00 8.7 3 Este 15 Este 0 958.3 -0.6 58
2020-01-21 21:00:00 9.2 5 Nordeste 15 Nordeste 0 958.6 0.1 56
2020-01-21 20:00:00 9.3 4 Nordeste 27 Este 0 958.6 0.1 57
2020-01-21 19:00:00 7.6 4 Este 13 Nordeste 0 958.9 -0.1 68
2020-01-21 18:00:00 8.2 3 Nordeste 8 Sudeste 0 958.5 -1.3 68
2020-01-21 17:00:00 9.2 3 Oeste 9 Oeste 0 958.5 -2.4 59
2020-01-21 16:00:00 9.2 3 Oeste 9 Nordeste 0 959 -2.5 58
2020-01-21 15:00:00 9.3 5 Sudeste 19 Este 0 959.8 -2.8 60
2020-01-21 14:00:00 7.7 3 Sudoeste 8 Sudoeste 0 960.9 -2.6 52
2020-01-21 13:00:00 6.2 3 Oeste 8 Oeste 0 961.5 -2.5 53
2020-01-21 12:00:00 3.6 4 Sur 10 Sur 0 962.6 -1.2 62
2020-01-21 11:00:00 1.6 2 Oeste 6 Sudoeste 0 963.5 -0.2 72
2020-01-21 10:00:00 -0.8 0 Calma 6 Este 0 964 -0.1 81
2020-01-21 09:00:00 -2.4 3 Oeste 9 Norte 0 963.8 -0.7 84
2020-01-21 08:00:00 -2.3 5 Sudeste 10 Sudeste 0 963.7 -1.1 86
2020-01-21 07:00:00 -2.5 4 Sudeste 7 Sudeste 0 964.1 -1.2 85
2020-01-21 06:00:00 -2.2 3 Noroeste 8 Noroeste 0 964.5 -0.9 82
2020-01-21 05:00:00 -2.5 4 Sudeste 6 Sudeste 0 964.8 -0.8 84
2020-01-21 04:00:00 -2.1 2 Nordeste 4 Este 0 965.3 -0.6 81
2020-01-21 03:00:00 -1.6 0 Calma 9 Sudeste 0 965.4 -0.7 79
2020-01-21 02:00:00 -1.1 3 Sur 6 Sur 0 965.6 -0.4 77
2020-01-21 01:00:00 -0.6 3 Este 6 Sudoeste 0 965.9 0.1 73
2020-01-21 00:00:00 0.1 2 Este 9 Sudoeste 0 966.1 0.5 69
2020-01-20 23:00:00 0.4 5 Este 7 Sudeste 0 966 0.8 72
2020-01-20 22:00:00 2.4 2 Sudoeste 5 Oeste 0 965.8 0.7 62
2020-01-20 21:00:00 3.1 2 Oeste 5 Oeste 0 965.6 0.8 59
2020-01-20 20:00:00 4.7 2 Norte 9 Norte 0 965.2 0.9 49
2020-01-20 19:00:00 6.2 2 Sudeste 13 Nordeste 0 965.1 0.6 45
2020-01-20 18:00:00 7.9 6 Este 23 Sudeste 0 964.8 -0.1 35
2020-01-20 17:00:00 9 10 Sudeste 28 Sudeste 0 964.3 -1.7 29
2020-01-20 16:00:00 9.4 14 Este 26 Este 0 964.5 -2.3 30
2020-01-20 15:00:00 9.3 10 Sudeste 31 Este 0 964.9 -2.6 28
2020-01-20 14:00:00 8.9 14 Este 41 Sudeste 0 966 -1.6 31
2020-01-20 13:00:00 8.6 18 Este 40 Este 0 966.8 -0.2 29
2020-01-20 12:00:00 7.8 10 Este 28 Sudeste 0 967.5 0.5 39
2020-01-20 11:00:00 6.4 14 Este 35 Sudeste 0 967.6 0.6 44
2020-01-20 10:00:00 4.2 10 Este 24 Sudeste 0 967 0.3 50
2020-01-20 09:00:00 0.7 3 Este 11 Nordeste 0 967 -0.3 66
2020-01-20 08:00:00 1.3 4 Este 17 Este 0 967 -0.9 67
2020-01-20 07:00:00 3.3 12 Nordeste 21 Nordeste 0 966.7 -1.9 56
2020-01-20 06:00:00 3.1 8 Nordeste 19 Este 0 967.3 -1.5 57
2020-01-20 05:00:00 3 9 Este 29 Nordeste 0 967.9 -1.5 60
2020-01-20 04:00:00 4.4 15 Este 30 Nordeste 0 968.6 -1 56
2020-01-20 03:00:00 4.6 13 Este 24 Este 0 968.8 -0.9 54
2020-01-20 02:00:00 4.7 14 Este 31 Este 0 969.4 -0.2 50
2020-01-20 01:00:00 4.7 16 Este 29 Sudeste 0 969.6 0.3 47
2020-01-20 00:00:00 4.6 10 Este 26 Este 0 969.7 0.7 47
2020-01-19 23:00:00 5.3 15 Sudeste 32 Sudeste 0 969.6 0.7 46
2020-01-19 22:00:00 5 13 Sudeste 24 Sudeste 0 969.3 0.7 40
2020-01-19 21:00:00 4 9 Este 22 Este 0 969 1.1 44
2020-01-19 20:00:00 5.5 5 Nordeste 24 Este 0 968.9 1.3 40
2020-01-19 19:00:00 6.5 6 Este 20 Sudeste 0 968.6 1.4 41
2020-01-19 18:00:00 8.2 9 Sudeste 35 Este 0 967.9 0.8 36
2020-01-19 17:00:00 9.9 13 Este 34 Este 0 967.6 0.3 34
2020-01-19 16:00:00 10.9 17 Este 29 Nordeste 0 967.2 -0.4 28
2020-01-19 15:00:00 11.2 17 Este 40 Nordeste 0 967.1 -0.5 28
2020-01-19 14:00:00 11.9 16 Este 36 Sudeste 0 967.3 0.2 30
2020-01-19 13:00:00 11.6 5 Nordeste 15 Nordeste 0 967.6 1.6 41
2020-01-19 12:00:00 9.8 4 Norte 10 Este 0 967.6 2.7 56
2020-01-19 11:00:00 7.3 5 Sudeste 12 Sudeste 0 967.1 3.4 73
2020-01-19 10:00:00 4.1 4 Sudeste 10 Sudeste 0 966 3.2 96
2020-01-19 09:00:00 2.7 4 Sudeste 9 Este 0 964.9 3.1 97
2020-01-19 08:00:00 2.6 3 Este 8 Sudeste 0 963.7 2 98
2020-01-19 07:00:00 3.3 4 Sudeste 10 Nordeste 0 962.8 1.1 95
2020-01-19 06:00:00 4.5 2 Oeste 5 Este 0 961.8 0.3 96
2020-01-19 05:00:00 4.6 3 Sudoeste 6 Sudeste 0 961.7 0.6 96
2020-01-19 04:00:00 4.2 3 Nordeste 6 Nordeste 0 961.7 1.2 97
2020-01-19 03:00:00 5 2 Norte 8 Noroeste 0 961.5 1.5 94
2020-01-19 02:00:00 4 3 Sudeste 6 Este 0 961.1 1.4 98
2020-01-19 01:00:00 3.6 4 Este 6 Este 0 960.5 1 95
2020-01-19 00:00:00 4.5 0 Calma 6 Este 0.2 960 0.8 94
2020-01-18 23:00:00 5.3 0 Calma 12 Noroeste 0 959.7 1.1 91
2020-01-18 22:00:00 5.7 7 Oeste 14 Sudoeste 1.6 959.5 1.3 88
2020-01-18 21:00:00 6.4 3 Oeste 16 Oeste 0.6 959.2 2 86
2020-01-18 20:00:00 6.3 8 Oeste 22 Noroeste 0.6 958.6 1.1 85
2020-01-18 19:00:00 7.2 7 Noroeste 19 Noroeste 1.8 958.2 2.2 86
2020-01-18 18:00:00 8.3 8 Noroeste 17 Noroeste 0 957.2 2.3 74
2020-01-18 17:00:00 8.1 7 Noroeste 39 Noroeste 0.4 957.5 0.4 79
2020-01-18 16:00:00 7.7 3 Sur -- -- -- 956 -2.3 89
2020-01-18 15:00:00 8.2 4 Noroeste 15 Sudeste 0 954.9 -5.4 81
2020-01-18 14:00:00 7 5 Sudoeste 16 Noroeste 0 957.1 -3.8 85
2020-01-18 13:00:00 6.6 3 Noroeste -- -- -- 958.3 -3.2 82
2020-01-18 12:00:00 5.8 5 Noroeste 8 Oeste 0 960.3 -1.9 85
2020-01-18 11:00:00 5.3 3 Sudoeste 7 Sudoeste 0 960.9 -1.4 87
2020-01-18 10:00:00 4.6 3 Este 10 Sudoeste 0 961.5 -1.5 91
2020-01-18 09:00:00 4.5 3 Oeste 6 Oeste 0 962.2 -0.9 91
2020-01-18 08:00:00 4.5 3 Este 4 Sudeste 0.2 962.3 -1.7 92
2020-01-18 07:00:00 4.5 0 Calma 4 Este 0 963 -1.6 89
2020-01-18 06:00:00 4.4 3 Norte 5 Oeste 0 963.1 -2.2 88
2020-01-18 05:00:00 4.5 0 Calma 8 Oeste 0 964 -2.2 88
2020-01-18 04:00:00 4.8 0 Calma 6 Nordeste 0 964.6 -2.5 84
2020-01-18 03:00:00 4.9 3 Sudoeste 8 Sudeste 0 965.3 -1.7 83
2020-01-18 02:00:00 4.9 2 Este 6 Sudeste 0 966.2 -1.4 84
2020-01-18 01:00:00 5.2 2 Sudoeste 9 Este 0 967.1 -0.7 81
2020-01-18 00:00:00 5.4 0 Calma 8 Sudoeste 0 967 -1.1 77
2020-01-17 23:00:00 5.8 0 Calma 8 Sur 0 967.6 -0.9 76
2020-01-17 22:00:00 6.2 4 Este 15 Este 0 967.8 -0.1 72
2020-01-17 21:00:00 6.6 5 Este 15 Este 0 968.1 0.2 69
2020-01-17 20:00:00 6.4 6 Sudeste 9 Sudeste 0 968.5 0.7 75
2020-01-17 19:00:00 6.9 3 Este 8 Sudoeste 0 967.9 0.5 73
2020-01-17 18:00:00 8.4 3 Oeste 16 Oeste 0 967.9 0.6 60
2020-01-17 17:00:00 9 7 Oeste 19 Sudoeste 0 967.8 0.2 59
2020-01-17 16:00:00 9.3 10 Oeste 21 Oeste 0 967.4 -0.5 60
2020-01-17 15:00:00 9.2 10 Oeste 20 Noroeste 0 967.3 -0.9 62
2020-01-17 14:00:00 9.8 10 Oeste 23 Oeste 0 967.6 0.4 59
2020-01-17 13:00:00 9.8 9 Sudoeste 19 Sudoeste 0 967.9 1.5 70
2020-01-17 12:00:00 7.9 8 Oeste 18 Oeste 0.2 968.2 3 80
2020-01-17 11:00:00 6.9 7 Oeste 14 Noroeste 0 967.2 2.8 84
2020-01-17 10:00:00 6 4 Oeste 17 Noroeste 0.4 966.4 3.1 87
2020-01-17 09:00:00 6.2 3 Oeste 17 Oeste 0.2 965.2 3 87
2020-01-17 08:00:00 6 3 Este 9 Oeste 0.2 964.4 2.9 91
2020-01-17 07:00:00 6.3 2 Sudeste 17 Noroeste 0.6 963.3 1.8 89
2020-01-17 06:00:00 7.8 7 Sudoeste 18 Oeste 0 962.2 1.4 78
2020-01-17 05:00:00 7.8 4 Sudoeste 17 Oeste 0 961.5 1.4 79
2020-01-17 04:00:00 7.4 4 Oeste 32 Noroeste 0.8 961.5 1.7 84
2020-01-17 03:00:00 8.6 7 Noroeste 16 Noroeste 0 960.8 1.5 83
2020-01-17 02:00:00 7.9 2 Oeste 7 Oeste 0 960.1 1.3 86
2020-01-17 01:00:00 7.9 4 Este 7 Este 0.2 959.8 1.7 89
2020-01-17 00:00:00 8.9 3 Noroeste 14 Oeste 0 959.3 2.4 77
2020-01-16 23:00:00 9.6 5 Oeste -- -- -- 958.8 2.6 76
2020-01-16 22:00:00 11.4 10 Oeste 29 Noroeste 0 958.1 2.4 60
2020-01-16 21:00:00 12.1 15 Sudoeste 46 Sudoeste 0 956.9 2.1 56
2020-01-16 20:00:00 11.4 4 Este 26 Sudoeste 0 956.2 1.4 69
2020-01-16 19:00:00 12.6 13 Sudoeste 39 Sur 0 955.7 0.5 57
2020-01-16 18:00:00 12.9 10 Sur 29 Sur 0 954.8 -1 57
2020-01-16 17:00:00 13.3 10 Sudoeste 22 Sur 0 954.8 -2 56
2020-01-16 16:00:00 13.4 6 Sudoeste 18 Sudeste 0 955.2 -1.9 55
2020-01-16 15:00:00 14 11 Sur -- -- -- 955.8 -1.9 54
2020-01-16 14:00:00 14.4 12 Sudoeste 30 Sur 0 956.8 -0.9 53
2020-01-16 13:00:00 14.8 14 Sur 34 Sudoeste 0 957.1 -0.5 52
2020-01-16 12:00:00 14.2 9 Sudoeste 24 Sudoeste 0 957.7 0.3 58
2020-01-16 11:00:00 11.1 3 Este 8 Sudeste 0 957.7 0.3 79
2020-01-16 10:00:00 12 4 Sudoeste 12 Noroeste 0 957.6 0.2 69
2020-01-16 09:00:00 11.9 4 Noroeste 18 Sudeste 0 957.4 0 66
2020-01-16 08:00:00 8.4 5 Sur 10 Sudoeste 0 957.4 -0.1 90
2020-01-16 07:00:00 7.4 4 Noroeste 10 Oeste 0 957.4 -0.3 91
2020-01-16 06:00:00 7.2 2 Norte 9 Noroeste 0 957.4 -1 90
2020-01-16 05:00:00 7.1 3 Este 13 Oeste 0 957.5 -1.3 89
2020-01-16 04:00:00 8.1 5 Oeste 14 Nordeste 0 957.7 -1.8 89
2020-01-16 03:00:00 7.8 5 Sudoeste 14 Noroeste 0 958.4 -0.6 86
2020-01-16 02:00:00 7.4 9 Sudeste 18 Este 0 958.8 -0.1 86
2020-01-16 01:00:00 7.1 5 Este 9 Este 0 959.5 0.9 85
2020-01-16 00:00:00 6.7 4 Noroeste 9 Noroeste 0 959 -0.3 83
2020-01-15 23:00:00 7.2 3 Sudeste 19 Sur 0 958.9 -0.1 82
2020-01-15 22:00:00 8.2 12 Sudeste 26 Sudeste 0 958.6 -0.3 73
2020-01-15 21:00:00 9 6 Sudeste 17 Sur 0 959.3 1.1 75
2020-01-15 20:00:00 8.7 4 Sudeste 11 Este 0 959 1.4 78
2020-01-15 19:00:00 10.2 4 Sudeste 9 Sudeste 0 958.9 1.9 75
2020-01-15 18:00:00 14 4 Noroeste 10 Noroeste 0 958.2 1.4 57
2020-01-15 17:00:00 15.3 4 Oeste 10 Noroeste 0 957.6 0.4 53
2020-01-15 16:00:00 15.3 2 Este 8 Oeste 0 957 -0.3 57
2020-01-15 15:00:00 13.8 2 Norte 9 Oeste 0 956.8 -0.5 64
2020-01-15 14:00:00 12 4 Este 12 Este 0 957.2 0.7 71
2020-01-15 13:00:00 12.1 4 Norte 12 Nordeste 0 957.3 1.9 72
2020-01-15 12:00:00 10.4 3 Este 7 Sudeste 0 957.3 1.9 78
2020-01-15 11:00:00 8.7 4 Sudeste 14 Nordeste 0 956.5 4.2 88
2020-01-15 10:00:00 8 6 Nordeste 24 Oeste 1.8 955.4 4 93
2020-01-15 09:00:00 8.9 11 Oeste 28 Sudoeste 4.4 955.4 4.8 85
2020-01-15 08:00:00 10 4 Nordeste 13 Nordeste 1 952.3 1.3 87
2020-01-15 07:00:00 10.8 5 Norte 13 Nordeste 0 951.4 0.2 75
2020-01-15 06:00:00 11.3 5 Nordeste 18 Noroeste 0 950.6 -0.4 70
2020-01-15 05:00:00 11.4 4 Noroeste 24 Oeste 0 951 -0.7 69
2020-01-15 04:00:00 10.7 5 Noroeste 13 Nordeste 0 951.2 -0.6 69
2020-01-15 03:00:00 9.1 5 Este 10 Este 0 951 -1.4 73
2020-01-15 02:00:00 8.8 3 Nordeste 12 Este 0 951.7 -0.8 74
2020-01-15 01:00:00 9.2 2 Sur 13 Este 0 951.8 -1.4 73
2020-01-15 00:00:00 9.8 5 Este 15 Este 0 952.4 -0.8 68
2020-01-14 23:00:00 9.6 5 Norte 14 Norte 0 952.5 -0.7 70
2020-01-14 22:00:00 9.5 4 Norte 10 Sur 0 953.2 -0.2 70
2020-01-14 21:00:00 9.7 5 Sudeste 20 Nordeste 0 953.2 -0.2 68
2020-01-14 20:00:00 10.1 4 Norte -- -- -- 953.2 0 65
2020-01-14 19:00:00 11 7 Noroeste -- -- -- 953.4 0.2 60
2020-01-14 18:00:00 10.4 4 Este 14 Norte 0 953.4 -0.4 67
2020-01-14 17:00:00 11 6 Noroeste 20 Este 0 953.2 -1.3 63
2020-01-14 16:00:00 11.7 2 Sur 13 Sudeste 0 953.2 -2.5 59
2020-01-14 15:00:00 12.6 8 Sudoeste 22 Oeste 0 953.8 -2.4 57
2020-01-14 14:00:00 12 5 Sur 13 Sudeste 0 954.5 -1.5 58
2020-01-14 13:00:00 9.6 3 Noroeste 15 Este 0 955.7 -0.1 65
2020-01-14 12:00:00 9.2 4 Noroeste 30 Este 0 956.2 0.5 66
2020-01-14 11:00:00 6.5 6 Sudeste 21 Este 0 956 0.5 76
2020-01-14 10:00:00 5.5 7 Sur 21 Este 0 955.8 0.4 78
2020-01-14 09:00:00 5.2 6 Este 26 Este 0 955.7 0.1 77
2020-01-14 08:00:00 5.2 7 Sudeste 22 Sudeste 0 955.5 -0.4 77
2020-01-14 07:00:00 4.8 9 Sudeste 20 Sur 0 955.4 -0.8 79
2020-01-14 06:00:00 4.3 5 Sudeste 14 Sur 0 955.6 -0.9 81
2020-01-14 05:00:00 3.5 3 Sur 14 Sur 0 955.9 -1.1 82
2020-01-14 04:00:00 3.5 4 Sudeste 10 Sudeste 0 956.2 -1.1 82
2020-01-14 03:00:00 3.5 6 Sudeste 13 Sudeste 0 956.5 -1.4 80
2020-01-14 02:00:00 3.5 4 Sur 13 Sudeste 0 957 -1.1 78
2020-01-14 01:00:00 3.9 5 Sur 14 Sudeste 0 957.3 -0.5 76
2020-01-14 00:00:00 3.4 3 Sur 14 Sudeste 0 957.9 -0.2 76
2020-01-13 23:00:00 4 4 Oeste 14 Sudeste 0 958.1 -0.2 74
2020-01-13 22:00:00 3.9 8 Sur 14 Sudeste 0 957.8 0.7 73
2020-01-13 21:00:00 3.9 2 Sudeste 17 Sudeste 0 958.1 -- 73
2020-01-13 20:00:00 4.2 3 Sur 9 Sudeste 0 958.3 1.3 74
2020-01-13 19:00:00 4.9 3 Este -- -- -- 957.1 -0.4 80
2020-01-13 18:00:00 -- -- -- -- -- -- -- -- --
2020-01-13 17:00:00 7.1 3 Sudoeste 11 Noroeste 0 957 -2.6 71
2020-01-13 16:00:00 6.6 6 Noroeste 11 Noroeste 0 957.5 -3.5 72
2020-01-13 15:00:00 4 4 Oeste 8 Oeste 0 958.4 -4.2 82
2020-01-13 14:00:00 2.9 6 Oeste 17 Noroeste 0 959.6 -3.3 87
2020-01-13 13:00:00 1 2 Sur 11 Este 0 961 -- 99
2020-01-13 12:00:00 -2 6 Oeste 11 Noroeste 0 962.6 0.5 99
2020-01-13 11:00:00 -3.2 3 Noroeste -- -- -- 962.9 0.5 99
2020-01-13 10:00:00 -- -- -- -- -- -- -- -- --
2020-01-13 09:00:00 -3.4 2 Norte 7 Este 0 962.1 -1.1 99
2020-01-13 08:00:00 -3.7 0 Calma 5 Este 0 962.4 -1.3 99
2020-01-13 07:00:00 -4.3 2 Noroeste 8 Norte 0 962.9 -1.5 98
2020-01-13 06:00:00 -3.4 0 Calma 7 Sudeste 0 963.2 -1.7 99
2020-01-13 05:00:00 -3.6 4 Este 9 Noroeste 0 963.7 -1.8 100
2020-01-13 04:00:00 -3.4 4 Noroeste 10 Noroeste 0 964.4 -2.2 99
2020-01-13 03:00:00 -3.1 3 Sudeste 6 Sudeste 0 964.9 -1.8 100
2020-01-13 02:00:00 -3.2 3 Noroeste 9 Noroeste 0 965.5 -1.3 99
2020-01-13 01:00:00 -2.3 4 Sudeste 6 Este 0 966.6 -0.3 100
2020-01-13 00:00:00 -2.6 0 Calma 10 Noroeste 0 966.7 -0.4 100
2020-01-12 23:00:00 -1.6 3 Sudeste 9 Sudeste 0 966.8 -0.3 100
2020-01-12 22:00:00 -1.7 2 Norte 6 Norte 0 966.9 -0.2 99
2020-01-12 21:00:00 -1 3 Sudeste 6 Oeste 0 967.1 0.3 99
2020-01-12 20:00:00 -0.9 4 Noroeste 8 Oeste 0 967.1 0.3 98
2020-01-12 19:00:00 0.1 0 Calma 7 Noroeste 0 967.1 0 97
2020-01-12 18:00:00 2.7 5 Oeste 7 Oeste 0 966.8 -0.7 88
2020-01-12 17:00:00 3.2 4 Oeste 6 Oeste 0 966.8 -1.5 88
2020-01-12 16:00:00 1.7 3 Sudeste 7 Oeste 0 967.1 -2.5 96
2020-01-12 15:00:00 0.6 2 Nordeste 7 Oeste 0 967.5 -2.9 98
2020-01-12 14:00:00 0 3 Oeste 8 Oeste 0 968.3 -2.4 100
2020-01-12 13:00:00 -0.8 3 Este 9 Noroeste 0 969.6 -0.7 100
2020-01-12 12:00:00 -1.3 3 Sudeste 6 Sudeste 0 970.4 0.7 100
2020-01-12 11:00:00 -2 3 Nordeste 5 Nordeste 0 970.7 1.2 100
2020-01-12 10:00:00 -2.3 3 Este 5 Noroeste 0 970.3 1.3 99
2020-01-12 09:00:00 -2.3 3 Sudeste 8 Sudeste 0 969.7 0.7 99
2020-01-12 08:00:00 -2.5 0 Calma 11 Norte 0 969.5 0.6 99
2020-01-12 07:00:00 -2.7 3 Noroeste 7 Norte 0 969 -0.1 97
2020-01-12 06:00:00 -2.4 4 Oeste 7 Noroeste 0 969 0 97
2020-01-12 05:00:00 -2.2 2 Este 5 Noroeste 0 968.9 0 96
2020-01-12 04:00:00 -2.1 0 Calma 4 Sudeste 0 969.1 -0.1 95
2020-01-12 03:00:00 -1.7 0 Calma 3 Sudeste 0 969 -0.2 95
2020-01-12 02:00:00 -1.1 0 Calma 5 Norte 0 968.9 -0.2 94
2020-01-12 01:00:00 -0.7 2 Sudeste 5 Sudeste 0 969.2 0.3 93
2020-01-12 00:00:00 0.5 4 Noroeste 9 Noroeste 0 969.2 0.6 94
2020-01-11 23:00:00 0 2 Este 4 Norte 0 969.1 0.7 92
2020-01-11 22:00:00 0.8 0 Calma 4 Sudeste 0 968.9 0.9 89
2020-01-11 21:00:00 1.7 0 Calma 4 Noroeste 0 968.6 1.1 86
2020-01-11 20:00:00 3 0 Calma 4 Este 0 968.4 1.1 83
2020-01-11 19:00:00 4.7 3 Sudeste 5 Este 0 968 0.5 79
2020-01-11 18:00:00 8.4 0 Calma 5 Oeste 0 967.5 -0.5 64
2020-01-11 17:00:00 9.5 3 Sudoeste 5 Sudeste 0 967.3 -1.3 60
2020-01-11 16:00:00 8.4 3 Oeste 10 Oeste 0 967.5 -2.4 62
2020-01-11 15:00:00 6.6 5 Oeste 11 Noroeste 0 968 -2.7 71
2020-01-11 14:00:00 5 6 Noroeste 10 Norte 0 968.6 -2.5 77
2020-01-11 13:00:00 3.8 4 Oeste 11 Sudoeste 0 969.9 -1 80
2020-01-11 12:00:00 2.4 5 Oeste 10 Oeste 0 970.7 0.1 87
2020-01-11 11:00:00 0.9 2 Noroeste 8 Norte 0 971.1 0.6 90
2020-01-11 10:00:00 -1.2 4 Noroeste 7 Noroeste 0 970.9 0.4 96
2020-01-11 09:00:00 -2.2 0 Calma 4 Sudeste 0 970.6 0.2 98
2020-01-11 08:00:00 -2.3 0 Calma 5 Sur 0 970.5 0.2 95
2020-01-11 07:00:00 -2.2 3 Sudeste 4 Sudeste 0 970.5 0 96
2020-01-11 06:00:00 -1.9 0 Calma 3 Nordeste 0 970.4 0.2 96
2020-01-11 05:00:00 -1.5 0 Calma 4 Este 0 970.3 -0.2 95
2020-01-11 04:00:00 -1.1 0 Calma 3 Nordeste 0 970.5 0 93
2020-01-11 03:00:00 -0.8 0 Calma 4 Este 0 970.2 -0.4 94
2020-01-11 02:00:00 -0.2 0 Calma 5 Norte 0 970.5 0.3 91
2020-01-11 01:00:00 0.1 3 Sudeste 5 Sur 0 970.5 0.4 92
2020-01-11 00:00:00 0.9 2 Oeste 5 Noroeste 0 970.6 1.1 88
2020-01-10 23:00:00 1.4 0 Calma 5 Sudoeste 0 970.2 1 87
2020-01-10 22:00:00 2.6 0 Calma 5 Sur 0 970.1 1.6 83
2020-01-10 21:00:00 4.1 2 Sudoeste 11 Sudeste 0 969.5 1.3 78
2020-01-10 20:00:00 5 5 Sudeste 8 Sudeste 0 969.2 1.2 74
2020-01-10 19:00:00 6.7 6 Sudeste 12 Sudeste 0 968.5 0.5 67
2020-01-10 18:00:00 10.4 2 Este 10 Oeste 0 968.2 0.6 58
2020-01-10 17:00:00 11.9 5 Oeste 12 Noroeste 0 968 -0.3 48
2020-01-10 16:00:00 12 4 Norte 9 Oeste 0 968 -0.9 47
2020-01-10 15:00:00 11.1 3 Oeste 10 Sudoeste 0 967.6 -1.3 53
2020-01-10 14:00:00 10.3 5 Oeste 15 Oeste 0 968.3 -1 58
2020-01-10 13:00:00 9.5 4 Oeste -- -- -- 968.9 0.4 62
2020-01-10 12:00:00 8.3 3 Sur 6 Sudeste 0 968.9 1 66
2020-01-10 11:00:00 5.3 2 Norte 8 Nordeste 0 969.3 1.8 80
2020-01-10 10:00:00 2.1 2 Nordeste 6 Norte 0 968.5 1.2 91
2020-01-10 09:00:00 1.1 0 Calma 5 Sudeste 0 967.9 1.5 92
2020-01-10 08:00:00 1.9 2 Sudeste 6 Sur 0 967.5 1.5 91
2020-01-10 07:00:00 2.5 3 Nordeste 7 Nordeste 0 967.3 1.2 89
2020-01-10 06:00:00 2.6 3 Sudoeste 8 Sudoeste 0 966.4 0.1 88
2020-01-10 05:00:00 2.8 0 Calma 6 Sudeste 0 966 0.3 85
2020-01-10 04:00:00 5 2 Noroeste 19 Noroeste 0 966.1 0.2 78
2020-01-10 03:00:00 5.6 8 Oeste 22 Oeste 0 966.3 0.4 78
2020-01-10 02:00:00 5.6 6 Sudoeste 17 Noroeste 0 965.7 -0.2 85
2020-01-10 01:00:00 5.8 7 Oeste 22 Noroeste 0 965.9 0.3 81
2020-01-10 00:00:00 6.1 9 Oeste 16 Noroeste 0 965.9 1.4 79
2020-01-09 23:00:00 6.1 8 Oeste 19 Oeste 0 965.9 1.9 76
2020-01-09 22:00:00 6.6 5 Noroeste 21 Oeste 0 965.6 2.3 71
2020-01-09 21:00:00 4.9 2 Nordeste 11 Noroeste 0 964.5 1.8 85
2020-01-09 20:00:00 6.7 7 Noroeste 13 Noroeste 0 964 1.6 79
2020-01-09 19:00:00 7.5 9 Noroeste 30 Norte 0.2 963.3 2.5 76
2020-01-09 18:00:00 9.4 13 Noroeste 30 Noroeste 0 962.7 3.8 76
2020-01-09 17:00:00 10.1 8 Noroeste 39 Norte 0 962.4 2.8 75
2020-01-09 16:00:00 11.4 14 Oeste 30 Oeste 0.6 960.8 0 79
2020-01-09 15:00:00 12.3 7 Oeste 16 Oeste 0 958.9 -3.9 71
2020-01-09 14:00:00 12.1 5 Oeste 10 Noroeste 0 959.6 -3.4 71
2020-01-09 13:00:00 9.1 4 Sur 7 Sur 0 960.8 -2.4 78
2020-01-09 12:00:00 8.3 0 Calma 8 Oeste 0 962.8 -0.2 77
2020-01-09 11:00:00 7.5 4 Sur 8 Sur 0 963 -0.7 79
2020-01-09 10:00:00 5.6 3 Sudoeste 15 Nordeste 0 963.2 -- 87
2020-01-09 09:00:00 5.3 4 Nordeste 12 Este 0 963 -0.9 89
2020-01-09 08:00:00 4.9 5 Sudoeste -- -- -- 963.7 -0.3 90
2020-01-09 07:00:00 -- -- -- -- -- -- -- -- --
2020-01-09 06:00:00 5.3 0 Calma 6 Oeste 0 963.9 -0.7 87
2020-01-09 05:00:00 5.3 2 Oeste 9 Sudeste 0 964 -1 86
2020-01-09 04:00:00 5 6 Sudeste 9 Sudeste 0 964.5 -0.9 87
2020-01-09 03:00:00 5.1 4 Norte 10 Sudeste 0 964.6 -1.5 85
2020-01-09 02:00:00 4.5 5 Sudeste 8 Sudeste 0 965 -1.4 88
2020-01-09 01:00:00 5.1 3 Noroeste 10 Sur 0 965.4 -1.1 83
2020-01-09 00:00:00 5.4 0 Calma 7 Oeste 0 966.1 -0.3 83
2020-01-08 23:00:00 5.2 3 Noroeste 6 Oeste 0 966.4 0.3 82
2020-01-08 22:00:00 4.3 3 Sur 8 Sur 0 966.5 0.5 87
2020-01-08 21:00:00 4.1 0 Calma 3 Norte 0 966.4 0.7 82
2020-01-08 20:00:00 5.3 0 Calma 5 Este 0 966.1 0.4 79
2020-01-08 19:00:00 7.3 0 Calma 4 Este 0 966 0 70
2020-01-08 18:00:00 10.8 2 Sudoeste 6 Oeste 0 965.7 -0.8 56
2020-01-08 17:00:00 12.6 0 Calma 4 Sur 0 965.7 -1.6 48
2020-01-08 16:00:00 11.5 2 Sudeste 7 Oeste 0 966 -2.3 49
2020-01-08 15:00:00 9.7 3 Noroeste -- -- -- 966.5 -2.9 60
2020-01-08 14:00:00 7.7 4 Oeste 9 Oeste 0 967.3 -2.5 69
2020-01-08 13:00:00 5.7 4 Oeste 8 Noroeste 0 968.3 -1.4 76
2020-01-08 12:00:00 3.6 4 Oeste 8 Noroeste 0 969.4 0 84
2020-01-08 11:00:00 2.3 3 Noroeste 5 Oeste 0 969.8 0.4 90
2020-01-08 10:00:00 -0.1 0 Calma 3 Nordeste 0 969.7 0.6 96
2020-01-08 09:00:00 -1.4 0 Calma 4 Sudeste 0 969.4 0.3 98
2020-01-08 08:00:00 -1.5 0 Calma 6 Noroeste 0 969.4 0.1 97
2020-01-08 07:00:00 -1.4 2 Norte 5 Sudeste 0 969.1 -0.5 97
2020-01-08 06:00:00 -1.6 3 Sudeste 4 Sudeste 0 969.1 -0.4 97
2020-01-08 05:00:00 -0.9 0 Calma 6 Noroeste 0 969.3 -0.2 97
2020-01-08 04:00:00 -1.1 3 Sur 5 Sur 0 969.6 0.1 98
2020-01-08 03:00:00 -0.4 0 Calma 10 Sudeste 0 969.5 -0.5 97
2020-01-08 02:00:00 -0.8 4 Sudeste 8 Sudeste 0 969.5 -0.5 97
2020-01-08 01:00:00 -0.7 2 Este 4 Este 0 969.5 -0.5 96
2020-01-08 00:00:00 0.3 2 Noroeste 12 Noroeste 0 970 0.1 96
2020-01-07 23:00:00 -0.2 3 Sudeste 4 Sudeste 0 970 0.4 96
2020-01-07 22:00:00 0.5 2 Este 6 Norte 0 970 1 94
2020-01-07 21:00:00 0.9 0 Calma 3 Sudeste 0 969.9 1.1 93
2020-01-07 20:00:00 1.8 0 Calma 9 Noroeste 0 969.6 0.9 91
2020-01-07 19:00:00 2.7 2 Nordeste 7 Norte 0 969 0.3 90
2020-01-07 18:00:00 4.5 4 Oeste 7 Oeste 0 968.8 -0.4 83
2020-01-07 17:00:00 6.6 4 Oeste 8 Noroeste 0 968.7 -1.3 73
2020-01-07 16:00:00 6 5 Oeste 7 Oeste 0 968.7 -2.4 75
2020-01-07 15:00:00 3.7 5 Oeste 11 Noroeste 0 969.2 -2.6 82
2020-01-07 14:00:00 1.6 3 Noroeste 8 Nordeste 0 970 -1.9 98
2020-01-07 13:00:00 -1.2 3 Noroeste 6 Oeste 0 971.1 -0.8 100
2020-01-07 12:00:00 -2.4 3 Noroeste 8 Norte 0 971.8 0.6 100
2020-01-07 11:00:00 -3 4 Noroeste 9 Sudeste 0 971.9 1 100
2020-01-07 10:00:00 -3.8 3 Este 7 Noroeste 0 971.9 1.2 100
2020-01-07 09:00:00 -3.5 2 Nordeste 5 Este 0 971.2 0.4 100
2020-01-07 08:00:00 -3.6 2 Este 5 Nordeste 0 970.9 0.2 100
2020-01-07 07:00:00 -3.5 2 Norte 6 Sudeste 0 970.7 0 100
2020-01-07 06:00:00 -3.5 3 Este 11 Noroeste 0 970.8 0.8 100
2020-01-07 05:00:00 -3.3 3 Noroeste 8 Norte 0 970.7 0.4 100
2020-01-07 04:00:00 -3.4 4 Este 6 Sudeste 0 970.7 0.3 100
2020-01-07 03:00:00 -3 0 Calma 8 Noroeste 0 970 0.1 100
2020-01-07 02:00:00 -3.4 5 Noroeste 9 Noroeste 0 970.3 0.8 99
2020-01-07 01:00:00 -2.7 2 Noroeste 6 Noroeste 0 970.4 1.1 100
2020-01-07 00:00:00 -2.4 3 Sudeste 6 Noroeste 0 969.9 0.9 100
2020-01-06 23:00:00 -2.4 4 Oeste 7 Noroeste 0 969.5 0.9 99
2020-01-06 22:00:00 -1.3 3 Sudeste 5 Sudeste 0 969.3 1.1 99
2020-01-06 21:00:00 -1.2 0 Calma 4 Oeste 0 969 1.9 98
2020-01-06 20:00:00 -0.9 0 Calma 10 Noroeste 0 968.6 1.6 98
2020-01-06 19:00:00 0.1 4 Este 10 Oeste 0 968.2 1.7 98
2020-01-06 18:00:00 1.8 6 Oeste 9 Oeste 0 967.1 0.7 91
2020-01-06 17:00:00 4 5 Oeste 10 Oeste 0 967 0 85
2020-01-06 16:00:00 4 4 Oeste 10 Noroeste 0 966.5 -1.2 86
2020-01-06 15:00:00 2.9 4 Noroeste 8 Sur 0 966.4 -1.8 88
2020-01-06 14:00:00 0.8 3 Oeste 11 Noroeste 0 967 -0.9 98
2020-01-06 13:00:00 -0.4 6 Noroeste 11 Noroeste 0 967.7 -0.4 100
2020-01-06 12:00:00 -1.3 4 Noroeste 9 Noroeste 0 968.2 0.5 100
2020-01-06 11:00:00 -2.2 5 Sudeste 11 Sudeste 0 967.9 0.6 100
2020-01-06 10:00:00 -2.5 3 Oeste 7 Noroeste 0 968.1 1.7 100